createdAt,value
2018-05-25T00:00:02.259Z,29.73
2018-05-25T00:02:29.778Z,29.67
2018-05-25T00:04:57.312Z,33.20
2018-05-25T00:07:24.830Z,32.97
2018-05-25T00:09:52.356Z,27.73
2018-05-25T00:12:19.863Z,25.87
2018-05-25T00:17:22.152Z,27.77
2018-05-25T00:19:50.447Z,30.43
2018-05-25T00:22:18.721Z,27.60
2018-05-25T00:24:46.338Z,27.17
2018-05-25T00:27:13.856Z,28.80
2018-05-25T00:29:41.498Z,25.77
2018-05-25T00:32:09.025Z,28.20
2018-05-25T00:34:37.339Z,26.83
2018-05-25T00:37:04.909Z,28.50
2018-05-25T00:39:32.442Z,28.83
2018-05-25T00:41:59.980Z,29.90
2018-05-25T00:44:27.507Z,25.90
2018-05-25T00:46:55.807Z,32.77
2018-05-25T00:49:23.326Z,31.83
2018-05-25T00:51:50.848Z,33.67
2018-05-25T00:54:18.413Z,33.47
2018-05-25T00:56:46.729Z,30.07
2018-05-25T00:59:14.245Z,31.93
2018-05-25T01:01:41.793Z,33.07
2018-05-25T01:04:09.294Z,29.53
2018-05-25T01:06:36.825Z,30.53
2018-05-25T01:09:04.357Z,32.90
2018-05-25T01:11:32.663Z,30.93
2018-05-25T01:14:00.168Z,31.97
2018-05-25T01:16:27.725Z,34.50
2018-05-25T01:18:55.272Z,29.00
2018-05-25T01:21:23.552Z,29.40
2018-05-25T01:23:51.881Z,30.77
2018-05-25T01:26:19.407Z,31.90
2018-05-25T01:28:46.996Z,30.47
2018-05-25T01:31:14.563Z,31.47
2018-05-25T01:33:42.852Z,31.93
2018-05-25T01:36:11.139Z,33.70
2018-05-25T01:38:39.423Z,33.27
2018-05-25T01:41:07.693Z,32.97
2018-05-25T01:43:35.218Z,34.20
2018-05-25T01:46:02.771Z,36.93
2018-05-25T01:48:30.299Z,34.50
2018-05-25T01:50:57.822Z,35.30
2018-05-25T01:53:25.397Z,32.50
2018-05-25T01:55:52.956Z,34.30
2018-05-25T01:58:21.233Z,33.87
2018-05-25T02:00:49.534Z,41.33
2018-05-25T02:03:17.043Z,36.20
2018-05-25T02:05:44.571Z,32.03
2018-05-25T02:08:12.844Z,35.77
2018-05-25T02:10:40.389Z,33.60
2018-05-25T02:13:07.902Z,35.50
2018-05-25T02:15:36.231Z,30.80
2018-05-25T02:18:03.741Z,35.97
2018-05-25T02:20:31.268Z,36.30
2018-05-25T02:22:58.822Z,37.07
2018-05-25T02:25:26.348Z,37.00
2018-05-25T02:27:53.865Z,34.60
2018-05-25T02:30:21.424Z,33.93
2018-05-25T02:32:49.830Z,32.33
2018-05-25T02:35:17.358Z,37.07
2018-05-25T02:37:44.952Z,38.13
2018-05-25T02:40:12.482Z,34.20
2018-05-25T02:42:40.018Z,37.53
2018-05-25T02:45:07.529Z,35.27
2018-05-25T02:47:35.084Z,34.93
2018-05-25T02:50:02.598Z,35.73
2018-05-25T02:52:30.142Z,36.73
2018-05-25T02:54:57.652Z,40.67
2018-05-25T02:57:25.948Z,36.20
2018-05-25T02:59:54.224Z,37.60
2018-05-25T03:02:21.723Z,40.00
2018-05-25T03:04:49.288Z,39.43
2018-05-25T03:07:16.871Z,37.77
2018-05-25T03:09:44.405Z,41.50
2018-05-25T03:12:11.916Z,40.57
2018-05-25T03:14:39.458Z,34.43
2018-05-25T03:17:07.752Z,40.57
2018-05-25T03:19:36.049Z,42.47
2018-05-25T03:22:04.324Z,41.47
2018-05-25T03:24:32.618Z,40.93
2018-05-25T03:27:00.888Z,44.47
2018-05-25T03:29:29.180Z,43.93
2018-05-25T03:31:56.686Z,47.70
2018-05-25T03:34:24.212Z,42.80
2018-05-25T03:36:51.713Z,47.50
2018-05-25T03:39:19.216Z,52.90
2018-05-25T03:41:46.744Z,45.63
2018-05-25T03:44:15.017Z,49.40
2018-05-25T03:46:42.633Z,41.50
2018-05-25T03:49:10.140Z,46.90
2018-05-25T03:51:37.672Z,45.37
2018-05-25T03:54:05.183Z,43.50
2018-05-25T03:56:32.713Z,45.87
2018-05-25T03:59:12.743Z,46.20
2018-05-25T04:01:52.061Z,45.80
2018-05-25T04:04:19.584Z,43.47
2018-05-25T04:06:47.960Z,47.70
2018-05-25T04:09:15.468Z,45.77
2018-05-25T04:11:43.020Z,46.53
2018-05-25T04:14:11.309Z,42.50
2018-05-25T04:16:39.595Z,42.30
2018-05-25T04:19:07.873Z,41.77
2018-05-25T04:21:35.441Z,40.10
2018-05-25T04:24:03.040Z,36.07
2018-05-25T04:26:31.370Z,37.00
2018-05-25T04:28:58.888Z,35.07
2018-05-25T04:31:27.177Z,38.33
2018-05-25T04:33:55.464Z,37.00
2018-05-25T04:36:22.993Z,34.57
2018-05-25T04:38:50.496Z,31.73
2018-05-25T04:41:18.028Z,34.43
2018-05-25T04:43:45.537Z,32.47
2018-05-25T04:46:13.062Z,34.10
2018-05-25T04:48:40.577Z,34.20
2018-05-25T04:51:08.137Z,31.30
2018-05-25T04:53:35.641Z,30.57
2018-05-25T04:56:03.932Z,31.87
2018-05-25T04:58:32.197Z,31.67
2018-05-25T05:00:59.712Z,32.50
2018-05-25T05:03:27.220Z,32.23
2018-05-25T05:05:54.732Z,31.07
2018-05-25T05:08:23.022Z,30.43
2018-05-25T05:10:51.296Z,30.03
2018-05-25T05:13:18.832Z,31.40
2018-05-25T05:15:46.345Z,32.60
2018-05-25T05:18:14.643Z,28.30
2018-05-25T05:20:42.926Z,24.33
2018-05-25T05:23:11.220Z,24.50
2018-05-25T05:25:39.499Z,23.10
2018-05-25T05:28:07.806Z,21.37
2018-05-25T05:30:36.080Z,19.53
2018-05-25T05:33:03.608Z,19.20
2018-05-25T05:35:31.120Z,19.83
2018-05-25T05:37:58.653Z,17.93
2018-05-25T05:40:26.172Z,17.27
2018-05-25T05:42:54.464Z,16.60
2018-05-25T05:45:22.748Z,17.70
2018-05-25T05:47:51.053Z,15.80
2018-05-25T05:50:19.363Z,16.90
2018-05-25T05:52:46.893Z,15.50
2018-05-25T05:55:14.452Z,16.10
2018-05-25T05:57:41.974Z,14.57
2018-05-25T06:00:09.500Z,15.40
2018-05-25T06:02:37.035Z,14.13
2018-05-25T06:05:04.557Z,14.43
2018-05-25T06:07:32.860Z,14.30
2018-05-25T06:10:00.375Z,13.80
2018-05-25T06:12:27.975Z,14.27
2018-05-25T06:14:55.493Z,13.20
2018-05-25T06:17:23.080Z,12.07
2018-05-25T06:19:50.625Z,14.10
2018-05-25T06:22:18.307Z,12.30
2018-05-25T06:24:45.875Z,12.20
2018-05-25T06:27:13.396Z,12.07
2018-05-25T06:29:41.016Z,11.90
2018-05-25T06:32:08.520Z,13.03
2018-05-25T06:34:36.061Z,11.87
2018-05-25T06:37:03.606Z,12.20
2018-05-25T06:39:31.152Z,11.50
2018-05-25T06:41:58.757Z,11.00
2018-05-25T06:44:27.070Z,10.80
2018-05-25T06:46:54.659Z,10.50
2018-05-25T06:49:22.248Z,9.80
2018-05-25T06:51:49.803Z,10.13
2018-05-25T06:54:17.398Z,8.40
2018-05-25T06:56:44.929Z,8.23
2018-05-25T06:59:12.487Z,8.63
2018-05-25T07:01:46.780Z,8.52
2018-05-25T07:04:14.324Z,7.87
2018-05-25T07:06:41.834Z,8.77
2018-05-25T07:09:09.409Z,7.50
2018-05-25T07:11:36.983Z,7.57
2018-05-25T07:14:04.591Z,6.50
2018-05-25T07:16:32.116Z,7.30
2018-05-25T07:18:59.636Z,6.95
2018-05-25T07:21:27.146Z,6.75
2018-05-25T07:23:54.702Z,7.25
2018-05-25T07:26:22.210Z,6.22
2018-05-25T07:28:49.784Z,6.60
2018-05-25T07:31:18.214Z,7.43
2018-05-25T07:33:45.785Z,7.35
2018-05-25T07:36:13.324Z,7.45
2018-05-25T07:38:40.897Z,7.35
2018-05-25T07:41:08.503Z,6.80
2018-05-25T07:43:36.053Z,6.68
2018-05-25T07:46:04.404Z,6.50
2018-05-25T07:48:32.055Z,6.43
2018-05-25T07:50:59.959Z,6.00
2018-05-25T07:53:27.485Z,5.65
2018-05-25T07:55:55.939Z,5.18
2018-05-25T07:58:23.529Z,7.30
2018-05-25T08:00:51.101Z,5.78
2018-05-25T08:03:18.788Z,5.80
2018-05-25T08:05:47.168Z,5.60
2018-05-25T08:08:14.737Z,5.05
2018-05-25T08:10:42.313Z,4.78
2018-05-25T08:13:09.872Z,4.37
2018-05-25T08:15:37.467Z,4.85
2018-05-25T08:18:05.760Z,5.20
2018-05-25T08:20:34.080Z,4.80
2018-05-25T08:23:01.650Z,4.82
2018-05-25T08:25:29.206Z,3.85
2018-05-25T08:27:57.910Z,4.70
2018-05-25T08:30:25.667Z,5.80
2018-05-25T08:32:54.172Z,6.10
2018-05-25T08:35:22.488Z,5.75
2018-05-25T08:37:50.083Z,4.65
2018-05-25T08:40:17.639Z,5.65
2018-05-25T08:42:45.140Z,5.32
2018-05-25T08:45:13.133Z,5.12
2018-05-25T08:47:40.727Z,5.30
2018-05-25T08:50:09.064Z,6.30
2018-05-25T08:52:37.294Z,5.18
2018-05-25T08:55:07.222Z,4.40
2018-05-25T08:57:35.947Z,5.10
2018-05-25T09:00:03.621Z,6.05
2018-05-25T09:02:31.172Z,7.25
2018-05-25T09:04:58.842Z,11.43
2018-05-25T09:07:26.953Z,10.05
2018-05-25T09:09:54.545Z,9.82
2018-05-25T09:12:22.202Z,8.88
2018-05-25T09:14:49.916Z,8.82
2018-05-25T09:17:23.183Z,10.30
2018-05-25T09:19:50.961Z,12.73
2018-05-25T09:22:18.621Z,15.70
2018-05-25T09:24:46.978Z,16.90
2018-05-25T09:27:14.532Z,16.87
2018-05-25T09:29:42.080Z,17.67
2018-05-25T09:32:09.846Z,20.97
2018-05-25T09:34:37.408Z,17.97
2018-05-25T09:37:06.530Z,17.37
2018-05-25T09:39:34.509Z,21.13
2018-05-25T09:42:02.146Z,18.87
2018-05-25T09:44:29.796Z,19.07
2018-05-25T09:46:57.464Z,20.40
2018-05-25T09:49:25.055Z,18.27
2018-05-25T09:51:52.633Z,18.47
2018-05-25T09:54:21.764Z,20.17
2018-05-25T09:57:02.278Z,21.93
2018-05-25T09:59:29.878Z,17.73
2018-05-25T10:01:57.768Z,18.37
2018-05-25T10:04:25.321Z,21.57
2018-05-25T10:06:52.900Z,21.53
2018-05-25T10:09:20.416Z,24.67
2018-05-25T10:11:49.004Z,22.13
2018-05-25T10:14:17.588Z,21.00
2018-05-25T10:16:45.142Z,18.50
2018-05-25T10:19:12.756Z,18.00
2018-05-25T10:21:41.129Z,19.13
2018-05-25T10:24:08.668Z,18.27
2018-05-25T10:26:36.548Z,18.50
2018-05-25T10:29:04.050Z,21.57
2018-05-25T10:31:31.927Z,19.70
2018-05-25T10:34:01.188Z,18.97
2018-05-25T10:36:29.464Z,18.90
2018-05-25T10:38:57.062Z,16.57
2018-05-25T10:41:25.208Z,18.43
2018-05-25T10:43:53.924Z,18.30
2018-05-25T10:46:21.458Z,15.90
2018-05-25T10:48:49.652Z,16.60
2018-05-25T10:51:21.864Z,17.57
2018-05-25T10:53:49.475Z,18.60
2018-05-25T10:56:17.261Z,17.50
2018-05-25T10:58:44.886Z,17.40
2018-05-25T11:01:12.561Z,19.10
2018-05-25T11:03:40.181Z,19.53
2018-05-25T11:06:07.844Z,15.60
2018-05-25T11:08:35.434Z,16.37
2018-05-25T11:11:02.964Z,17.07
2018-05-25T11:13:30.977Z,16.53
2018-05-25T11:15:58.535Z,16.67
2018-05-25T11:18:27.413Z,16.13
2018-05-25T11:20:55.657Z,16.60
2018-05-25T11:23:23.541Z,16.40
2018-05-25T11:25:51.122Z,17.00
2018-05-25T11:28:19.139Z,14.23
2018-05-25T11:30:46.697Z,15.70
2018-05-25T11:33:15.041Z,16.03
2018-05-25T11:35:43.197Z,16.10
2018-05-25T11:38:14.445Z,13.93
2018-05-25T11:40:42.016Z,14.33
2018-05-25T11:43:09.862Z,15.10
2018-05-25T11:45:47.561Z,15.60
2018-05-25T11:48:15.999Z,14.70
2018-05-25T11:50:43.572Z,13.90
2018-05-25T11:53:11.448Z,13.50
2018-05-25T11:55:39.064Z,12.90
2018-05-25T11:58:06.769Z,15.70
2018-05-25T12:00:34.552Z,15.67
2018-05-25T12:03:02.286Z,15.40
2018-05-25T12:05:29.865Z,14.33
2018-05-25T12:07:57.501Z,14.80
2018-05-25T12:10:25.074Z,15.50
2018-05-25T12:12:52.632Z,13.90
2018-05-25T12:15:21.831Z,16.13
2018-05-25T12:17:51.623Z,15.90
2018-05-25T12:20:19.850Z,14.63
2018-05-25T12:22:48.314Z,13.57
2018-05-25T12:25:15.836Z,15.53
2018-05-25T12:27:43.445Z,15.10
2018-05-25T12:30:11.288Z,13.80
2018-05-25T12:32:39.014Z,14.10
2018-05-25T12:35:08.587Z,13.20
2018-05-25T12:37:36.257Z,13.53
2018-05-25T12:40:03.946Z,14.70
2018-05-25T12:42:31.936Z,14.93
2018-05-25T12:45:11.343Z,13.47
2018-05-25T12:47:39.859Z,14.07
2018-05-25T12:50:08.148Z,14.20
2018-05-25T12:52:35.819Z,13.73
2018-05-25T12:55:05.654Z,13.70
2018-05-25T12:57:33.237Z,13.67
2018-05-25T13:00:00.856Z,14.80
2018-05-25T13:02:28.516Z,12.33
2018-05-25T13:04:56.217Z,13.57
2018-05-25T13:07:23.900Z,12.67
2018-05-25T13:09:51.458Z,13.63
2018-05-25T13:12:19.243Z,12.83
2018-05-25T13:14:47.332Z,13.07
2018-05-25T13:17:15.774Z,12.40
2018-05-25T13:19:45.021Z,12.17
2018-05-25T13:22:13.040Z,11.80
2018-05-25T13:24:40.721Z,11.23
2018-05-25T13:27:08.336Z,11.47
2018-05-25T13:29:35.865Z,11.67
2018-05-25T13:32:03.680Z,11.27
2018-05-25T13:34:31.264Z,11.47
2018-05-25T13:37:00.422Z,11.20
2018-05-25T13:39:27.993Z,12.40
2018-05-25T13:41:55.875Z,11.23
2018-05-25T13:44:23.725Z,11.30
2018-05-25T13:46:52.840Z,12.03
2018-05-25T13:49:20.535Z,10.67
2018-05-25T13:51:49.442Z,11.37
2018-05-25T13:54:17.048Z,10.87
2018-05-25T13:56:47.870Z,12.17
2018-05-25T13:59:18.713Z,12.30
2018-05-25T14:01:46.590Z,11.57
2018-05-25T14:04:14.292Z,11.33
2018-05-25T14:06:42.658Z,10.13
2018-05-25T14:09:10.720Z,10.63
2018-05-25T14:11:39.095Z,12.70
2018-05-25T14:14:07.472Z,10.97
2018-05-25T14:16:35.099Z,12.10
2018-05-25T14:19:02.863Z,11.40
2018-05-25T14:21:30.863Z,10.97
2018-05-25T14:23:58.814Z,10.90
2018-05-25T14:26:27.510Z,14.47
2018-05-25T14:28:56.137Z,10.50
2018-05-25T14:31:23.813Z,11.10
2018-05-25T14:33:52.141Z,10.70
2018-05-25T14:36:20.391Z,11.57
2018-05-25T14:38:52.898Z,11.87
2018-05-25T14:41:20.800Z,11.90
2018-05-25T14:43:49.398Z,10.50
2018-05-25T14:46:17.677Z,10.70
2018-05-25T14:48:45.807Z,11.00
2018-05-25T14:51:19.553Z,10.87
2018-05-25T14:53:51.012Z,10.97
2018-05-25T14:56:18.725Z,11.20
2018-05-25T14:58:46.612Z,11.30
2018-05-25T15:01:17.495Z,11.20
2018-05-25T15:03:46.158Z,9.67
2018-05-25T15:06:14.097Z,16.40
2018-05-25T15:08:44.772Z,11.10
2018-05-25T15:11:12.365Z,10.00
2018-05-25T15:13:40.043Z,9.00
2018-05-25T15:16:07.885Z,9.20
2018-05-25T15:18:37.275Z,9.63
2018-05-25T15:21:05.943Z,11.60
2018-05-25T15:23:37.761Z,11.57
2018-05-25T15:26:08.808Z,10.83
2018-05-25T15:28:37.032Z,10.20
2018-05-25T15:31:04.786Z,11.70
2018-05-25T15:36:28.663Z,10.50
2018-05-25T15:38:56.757Z,10.83
2018-05-25T15:41:26.980Z,11.10
2018-05-25T15:43:55.919Z,10.80
2018-05-25T15:46:23.839Z,9.83
2018-05-25T15:48:51.423Z,10.80
2018-05-25T15:51:19.155Z,12.07
2018-05-25T15:53:49.998Z,11.70
2018-05-25T15:56:17.613Z,13.43
2018-05-25T15:58:45.223Z,15.33
2018-05-25T16:01:14.128Z,14.03
2018-05-25T16:03:46.559Z,15.80
2018-05-25T16:06:14.144Z,12.53
2018-05-25T16:08:41.711Z,11.10
2018-05-25T16:11:09.342Z,10.00
2018-05-25T16:13:37.676Z,9.83
2018-05-25T16:16:05.229Z,10.53
2018-05-25T16:18:32.765Z,9.93
2018-05-25T16:21:01.101Z,10.13
2018-05-25T16:23:28.616Z,9.30
2018-05-25T16:25:56.915Z,9.50
2018-05-25T16:28:25.247Z,9.30
2018-05-25T16:30:52.836Z,9.60
2018-05-25T16:33:20.404Z,11.47
2018-05-25T16:35:47.947Z,9.63
2018-05-25T16:38:15.490Z,10.07
2018-05-25T16:40:43.048Z,10.10
2018-05-25T16:43:10.600Z,10.33
2018-05-25T16:45:38.165Z,10.33
2018-05-25T16:48:05.698Z,9.83
2018-05-25T16:50:33.993Z,8.90
2018-05-25T16:53:01.557Z,10.03
2018-05-25T16:55:29.897Z,8.33
2018-05-25T16:57:57.433Z,9.20
2018-05-25T17:00:24.966Z,11.13
2018-05-25T17:02:52.525Z,11.80
2018-05-25T17:05:20.081Z,11.17
2018-05-25T17:07:47.623Z,11.33
2018-05-25T17:10:15.152Z,7.90
2018-05-25T17:12:42.697Z,8.83
2018-05-25T17:15:10.301Z,7.77
2018-05-25T17:17:37.880Z,10.83
2018-05-25T17:20:06.234Z,8.03
2018-05-25T17:22:33.892Z,9.00
2018-05-25T17:25:01.956Z,9.40
2018-05-25T17:30:27.741Z,7.87
2018-05-25T17:35:44.472Z,7.00
2018-05-25T17:38:12.467Z,13.03
2018-05-25T17:43:33.408Z,8.20
2018-05-25T17:46:13.343Z,7.60
2018-05-25T17:48:41.342Z,9.93
2018-05-25T17:51:10.133Z,7.60
2018-05-25T17:53:39.979Z,7.93
2018-05-25T17:56:26.602Z,9.70
2018-05-25T17:59:05.377Z,7.30
2018-05-25T18:01:33.419Z,8.93
2018-05-25T18:04:01.374Z,8.27
2018-05-25T18:06:29.250Z,8.93
2018-05-25T18:08:56.917Z,7.87
2018-05-25T18:11:25.760Z,7.67
2018-05-25T18:13:54.017Z,9.20
2018-05-25T18:16:22.157Z,8.57
2018-05-25T18:19:03.940Z,10.47
2018-05-25T18:21:32.001Z,8.27
2018-05-25T18:24:13.012Z,10.17
2018-05-25T18:26:45.108Z,8.80
2018-05-25T18:29:13.849Z,9.87
2018-05-25T18:31:41.468Z,8.23
2018-05-25T18:34:09.205Z,15.33
2018-05-25T18:36:36.821Z,13.70
2018-05-25T18:39:04.411Z,10.83
2018-05-25T18:41:31.985Z,12.00
2018-05-25T18:43:59.701Z,18.53
2018-05-25T18:46:27.412Z,12.97
2018-05-25T18:48:54.980Z,18.10
2018-05-25T18:51:23.348Z,26.63
2018-05-25T18:54:02.703Z,15.50
2018-05-25T18:56:31.047Z,19.90
2018-05-25T18:58:58.675Z,22.70
2018-05-25T19:01:27.021Z,19.70
2018-05-25T19:03:54.754Z,15.60
2018-05-25T19:06:22.501Z,18.33
2018-05-25T19:08:51.579Z,12.03
2018-05-25T19:11:19.192Z,16.20
2018-05-25T19:13:47.688Z,10.77
2018-05-25T19:16:16.022Z,13.57
2018-05-25T19:18:43.568Z,11.47
2018-05-25T19:21:11.235Z,12.37
2018-05-25T19:23:39.738Z,14.93
2018-05-25T19:26:07.568Z,10.73
2018-05-25T19:28:35.676Z,11.70
2018-05-25T19:31:36.255Z,13.20
2018-05-25T19:34:04.028Z,10.60
2018-05-25T19:36:33.425Z,10.43
2018-05-25T19:39:03.456Z,10.90
2018-05-25T19:44:37.378Z,14.07
2018-05-25T19:47:05.282Z,12.27
2018-05-25T19:49:34.403Z,10.50
2018-05-25T19:52:02.758Z,11.30
2018-05-25T19:54:30.314Z,10.97
2018-05-25T19:56:57.889Z,11.60
2018-05-25T19:59:25.465Z,15.93
2018-05-25T20:01:53.060Z,9.40
2018-05-25T20:04:20.618Z,11.90
2018-05-25T20:06:48.192Z,12.43
2018-05-25T20:09:15.747Z,10.20
2018-05-25T20:11:43.303Z,10.67
2018-05-25T20:14:10.899Z,11.23
2018-05-25T20:16:38.495Z,11.67
2018-05-25T20:19:06.089Z,9.93
2018-05-25T20:21:34.414Z,16.23
2018-05-25T20:24:02.002Z,11.67
2018-05-25T20:26:29.556Z,10.47
2018-05-25T20:28:57.164Z,12.57
2018-05-25T20:31:24.728Z,11.27
2018-05-25T20:33:52.297Z,11.77
2018-05-25T20:36:20.879Z,11.23
2018-05-25T20:38:48.815Z,10.30
2018-05-25T20:41:16.371Z,11.17
2018-05-25T20:43:43.946Z,12.77
2018-05-25T20:46:11.521Z,11.50
2018-05-25T20:48:39.137Z,16.37
2018-05-25T20:51:06.693Z,11.80
2018-05-25T20:53:35.019Z,10.73
2018-05-25T20:56:02.608Z,14.30
2018-05-25T20:58:30.200Z,10.10
2018-05-25T21:00:57.835Z,11.00
2018-05-25T21:03:25.384Z,9.43
2018-05-25T21:05:52.987Z,9.77
2018-05-25T21:08:20.562Z,11.60
2018-05-25T21:10:48.287Z,11.47
2018-05-25T21:13:16.617Z,10.83
2018-05-25T21:15:44.177Z,12.33
2018-05-25T21:18:11.784Z,11.60
2018-05-25T21:20:39.341Z,11.70
2018-05-25T21:23:06.900Z,12.27
2018-05-25T21:25:34.471Z,13.20
2018-05-25T21:28:02.048Z,11.40
2018-05-25T21:30:29.683Z,13.10
2018-05-25T21:32:57.998Z,11.90
2018-05-25T21:35:25.567Z,11.60
2018-05-25T21:37:53.155Z,10.50
2018-05-25T21:40:20.754Z,12.97
2018-05-25T21:42:48.380Z,10.93
2018-05-25T21:45:16.716Z,12.93
2018-05-25T21:47:44.311Z,11.47
2018-05-25T21:50:11.888Z,13.70
2018-05-25T21:52:40.363Z,13.73
2018-05-25T21:55:07.959Z,11.13
2018-05-25T21:57:35.594Z,11.50
2018-05-25T22:00:03.170Z,12.70
2018-05-25T22:02:30.746Z,13.13
2018-05-25T22:04:58.341Z,16.30
2018-05-25T22:07:25.917Z,15.03
2018-05-25T22:09:53.482Z,12.83
2018-05-25T22:12:21.049Z,12.03
2018-05-25T22:14:48.605Z,15.27
2018-05-25T22:17:16.209Z,13.13
2018-05-25T22:19:43.796Z,12.03
2018-05-25T22:22:12.132Z,12.30
2018-05-25T22:24:39.727Z,12.87
2018-05-25T22:27:07.322Z,13.70
2018-05-25T22:29:34.898Z,14.90
2018-05-25T22:32:02.445Z,13.83
2018-05-25T22:34:30.049Z,13.70
2018-05-25T22:36:57.611Z,12.57
2018-05-25T22:39:25.220Z,13.80
2018-05-25T22:41:56.175Z,12.13
2018-05-25T22:44:35.653Z,12.57
2018-05-25T22:47:14.945Z,13.40
2018-05-25T22:49:55.421Z,15.57
2018-05-25T22:52:28.215Z,14.77
2018-05-25T22:54:57.571Z,13.40
2018-05-25T22:57:25.191Z,14.10
2018-05-25T22:59:52.754Z,14.13
2018-05-25T23:02:20.298Z,13.53
2018-05-25T23:04:47.875Z,14.30
2018-05-25T23:07:15.429Z,13.87
2018-05-25T23:09:43.066Z,15.60
2018-05-25T23:12:10.603Z,14.47
2018-05-25T23:14:38.275Z,14.60
2018-05-25T23:17:05.872Z,14.20
2018-05-25T23:19:33.467Z,14.17
2018-05-25T23:22:01.823Z,14.67
2018-05-25T23:24:29.419Z,13.33
2018-05-25T23:26:57.196Z,14.07
2018-05-25T23:29:24.789Z,14.77
2018-05-25T23:31:53.129Z,15.20
2018-05-25T23:34:20.700Z,13.03
2018-05-25T23:36:48.296Z,14.20
2018-05-25T23:39:15.893Z,16.10
2018-05-25T23:41:44.273Z,13.67
2018-05-25T23:44:11.883Z,13.07
2018-05-25T23:46:39.518Z,15.97
2018-05-25T23:49:07.194Z,14.10
2018-05-25T23:51:34.748Z,14.50
2018-05-25T23:54:02.549Z,16.10
2018-05-25T23:56:30.208Z,14.03
2018-05-25T23:58:57.776Z,17.87
